Time;durP1;ratioP1;P1;durP2;ratioP2;P2;SDS_P1;SDS_P2;PMS_P1;PMS_P2;Temp;Humidity;BMP_temperature;BMP_pressure;BME280_temperature;BME280_humidity;BME280_pressure;Samples;Min_cycle;Max_cycle;Signal;HPM_P1;HPM_P2
2022/01/12 00:00:21;;;;;;;4.13;2.35;;;3.00;99.90;;;;;;5015495;28;20081;-85
2022/01/12 00:02:51;;;;;;;1.85;1.23;;;3.00;99.90;;;;;;5031763;28;20120;-85
2022/01/12 00:05:19;;;;;;;2.42;1.60;;;3.00;99.90;;;;;;5031736;28;20048;-86
2022/01/12 00:07:50;;;;;;;3.95;3.50;;;3.00;99.90;;;;;;5014782;28;20038;-85
2022/01/12 00:10:18;;;;;;;3.22;2.92;;;3.00;99.90;;;;;;5015257;28;20041;-85
2022/01/12 00:12:43;;;;;;;7.13;2.97;;;3.00;99.90;;;;;;5031532;28;20042;-85
2022/01/12 00:15:09;;;;;;;2.25;1.75;;;3.00;99.90;;;;;;5015219;28;20048;-85
2022/01/12 00:17:35;;;;;;;2.05;1.65;;;3.00;99.90;;;;;;5014733;28;20116;-85
2022/01/12 00:20:00;;;;;;;2.65;2.38;;;3.00;99.90;;;;;;5015165;28;20128;-85
2022/01/12 00:22:27;;;;;;;10.98;3.60;;;3.00;99.90;;;;;;5031480;28;20083;-85
2022/01/12 00:33:09;;;;;;;1.58;1.20;;;3.00;99.90;;;;;;5035473;28;20052;-86
2022/01/12 00:35:35;;;;;;;4.13;2.67;;;3.00;99.90;;;;;;5035367;28;20042;-85
2022/01/12 00:38:01;;;;;;;6.30;2.92;;;3.00;99.90;;;;;;5018274;28;20034;-85
2022/01/12 00:40:27;;;;;;;1.25;0.85;;;3.00;99.90;;;;;;5018870;28;20091;-86
2022/01/12 00:42:53;;;;;;;2.25;1.90;;;3.00;99.90;;;;;;5019009;28;20034;-86
2022/01/12 00:45:20;;;;;;;1.08;0.80;;;3.10;99.90;;;;;;5018882;28;20034;-86
2022/01/12 00:47:45;;;;;;;3.80;2.80;;;3.10;99.90;;;;;;5018262;28;20053;-85
2022/01/12 00:50:11;;;;;;;13.82;4.50;;;3.00;99.90;;;;;;5018627;28;20124;-86
2022/01/12 00:52:36;;;;;;;4.45;3.17;;;3.10;99.90;;;;;;5018823;28;20079;-85
2022/01/12 00:55:03;;;;;;;1.95;1.30;;;3.10;99.90;;;;;;5018777;28;20128;-85
2022/01/12 00:57:30;;;;;;;9.57;1.90;;;3.10;99.90;;;;;;5017922;28;20463;-85
2022/01/12 00:59:56;;;;;;;3.47;2.45;;;3.20;99.90;;;;;;5018696;28;20131;-85
2022/01/12 01:02:22;;;;;;;2.13;1.67;;;3.10;99.90;;;;;;5018751;28;20120;-86
2022/01/12 01:04:48;;;;;;;3.40;2.83;;;3.10;99.90;;;;;;5018427;28;20087;-85
2022/01/12 01:07:14;;;;;;;7.63;3.67;;;3.10;99.90;;;;;;5017970;28;20069;-85
2022/01/12 01:09:44;;;;;;;5.63;3.75;;;3.10;99.90;;;;;;5018561;28;20048;-86
2022/01/12 01:12:10;;;;;;;0.93;0.88;;;3.10;99.90;;;;;;5018079;28;20038;-85
2022/01/12 01:14:46;;;;;;;1.13;0.98;;;3.10;99.90;;;;;;5018008;28;20399;-85
2022/01/12 01:25:32;;;;;;;2.60;2.00;;;3.10;99.90;;;;;;5034601;28;20095;-85
2022/01/12 01:28:01;;;;;;;12.88;3.70;;;3.20;99.90;;;;;;5034355;28;20041;-85
2022/01/12 01:30:27;;;;;;;6.05;3.05;;;3.10;99.90;;;;;;5017937;28;20174;-85
2022/01/12 01:32:54;;;;;;;7.35;3.00;;;3.10;99.90;;;;;;5017873;28;20038;-85
2022/01/12 01:35:20;;;;;;;2.63;1.58;;;3.10;99.90;;;;;;5017413;28;20045;-85
2022/01/12 01:37:45;;;;;;;2.45;1.25;;;3.10;99.90;;;;;;5033711;28;20041;-87
2022/01/12 01:40:13;;;;;;;0.80;0.80;;;3.10;99.90;;;;;;5034221;28;20037;-86
2022/01/12 01:53:39;;;;;;;4.40;2.30;;;3.10;99.90;;;;;;5033814;28;20073;-85
2022/01/12 01:56:05;;;;;;;10.40;4.88;;;3.20;99.90;;;;;;5033540;28;20502;-86
2022/01/12 01:58:31;;;;;;;2.92;1.67;;;3.10;99.90;;;;;;5017238;28;20034;-85
2022/01/12 02:00:56;;;;;;;4.90;2.97;;;3.20;99.90;;;;;;5017154;28;20045;-85
2022/01/12 02:03:26;;;;;;;1.15;1.08;;;3.20;99.90;;;;;;5017294;28;20033;-85
2022/01/12 02:05:52;;;;;;;0.68;0.68;;;3.10;99.90;;;;;;5017378;28;20033;-85
2022/01/12 02:08:17;;;;;;;0.65;0.60;;;3.20;99.90;;;;;;5016772;28;20510;-85
2022/01/12 02:10:43;;;;;;;1.73;1.60;;;3.20;99.90;;;;;;5017203;28;20045;-85
2022/01/12 02:13:09;;;;;;;0.60;0.60;;;3.20;99.90;;;;;;5016952;28;20045;-85
2022/01/12 02:15:35;;;;;;;7.28;2.78;;;3.20;99.90;;;;;;5033800;28;20518;-85
2022/01/12 02:40:19;;;;;;;3.03;0.90;;;3.30;99.90;;;;;;5033150;28;20474;-85
2022/01/12 02:42:49;;;;;;;2.70;1.85;;;3.20;99.90;;;;;;5016532;28;20033;-85
2022/01/12 02:50:55;;;;;;;3.65;1.83;;;3.30;99.90;;;;;;5032944;28;20056;-85
2022/01/12 02:53:42;;;;;;;1.10;1.05;;;3.30;99.90;;;;;;5016429;28;20037;-85
2022/01/12 02:56:15;;;;;;;7.47;2.83;;;3.30;99.90;;;;;;5015941;28;20037;-86
2022/01/12 02:58:43;;;;;;;2.30;1.65;;;3.30;99.90;;;;;;5015973;28;20453;-86
2022/01/12 03:03:42;;;;;;;1.20;0.90;;;3.30;99.90;;;;;;5032781;28;20038;-85
2022/01/12 03:06:09;;;;;;;1.75;1.58;;;3.30;99.90;;;;;;5015649;28;20107;-86
2022/01/12 03:08:37;;;;;;;0.95;0.90;;;3.30;99.90;;;;;;5016320;28;20037;-85
2022/01/12 03:11:15;;;;;;;28.25;3.42;;;3.30;99.90;;;;;;5016284;28;20517;-85
2022/01/12 03:13:41;;;;;;;5.07;1.35;;;3.30;99.90;;;;;;5016072;28;20149;-85
2022/01/12 03:16:19;;;;;;;1.40;1.30;;;3.30;99.90;;;;;;5015592;28;20403;-86
2022/01/12 03:18:48;;;;;;;5.38;2.90;;;3.30;99.90;;;;;;5016012;28;20037;-85
2022/01/12 03:21:15;;;;;;;7.82;4.60;;;3.30;99.90;;;;;;5016142;28;20514;-85
2022/01/12 03:23:41;;;;;;;1.30;1.13;;;3.30;99.90;;;;;;5032321;28;20034;-85
2022/01/12 03:26:09;;;;;;;5.95;3.67;;;3.40;99.90;;;;;;5015234;28;20044;-86
2022/01/12 03:28:37;;;;;;;1.52;0.73;;;3.30;99.90;;;;;;5015987;28;20041;-85
2022/01/12 03:38:45;;;;;;;;;;;3.40;99.90;;;;;;5032557;28;20570;-86
2022/01/12 03:41:11;;;;;;;0.35;0.35;;;3.40;99.90;;;;;;5032065;28;20055;-85
2022/01/12 03:43:37;;;;;;;3.47;1.30;;;3.40;99.90;;;;;;5015715;28;20091;-85
2022/01/12 03:46:04;;;;;;;17.00;1.55;;;3.50;99.90;;;;;;5031408;28;20142;-86
2022/01/12 03:48:29;;;;;;;0.50;0.50;;;3.40;99.90;;;;;;5015421;28;20064;-86
2022/01/12 03:50:56;;;;;;;0.80;0.80;;;3.40;99.90;;;;;;5015543;28;20042;-85
2022/01/12 03:53:22;;;;;;;1.15;1.05;;;3.40;99.90;;;;;;5015479;28;20045;-85
2022/01/12 03:55:48;;;;;;;0.40;0.40;;;3.50;99.90;;;;;;5032075;28;20514;-86
2022/01/12 03:58:14;;;;;;;2.80;2.30;;;3.40;99.90;;;;;;5031176;28;20041;-86
2022/01/12 04:00:40;;;;;;;1.48;1.08;;;3.40;99.90;;;;;;5015308;28;20037;-86
2022/01/12 04:03:07;;;;;;;0.73;0.73;;;3.50;99.90;;;;;;5015355;28;20491;-85
2022/01/12 04:08:19;;;;;;;0.60;0.60;;;3.40;99.90;;;;;;5031484;28;20046;-86
2022/01/12 04:10:49;;;;;;;1.02;0.90;;;3.50;99.90;;;;;;5031907;28;20041;-86
2022/01/12 04:13:15;;;;;;;0.45;0.45;;;3.50;99.90;;;;;;5015075;28;20041;-86
2022/01/12 04:15:50;;;;;;;0.63;0.63;;;3.90;99.90;;;;;;5015134;28;20056;-86
2022/01/12 04:18:16;;;;;;;0.40;0.40;;;3.50;99.90;;;;;;5014971;28;20136;-86
2022/01/12 04:20:46;;;;;;;0.40;0.40;;;3.50;99.90;;;;;;5015404;28;20129;-86
2022/01/12 04:23:21;;;;;;;2.10;1.92;;;3.50;99.90;;;;;;5015202;28;20033;-86
2022/01/12 04:25:52;;;;;;;3.93;2.27;;;3.50;99.90;;;;;;5014984;28;20084;-85
2022/01/12 04:28:20;;;;;;;1.30;0.95;;;3.50;99.90;;;;;;5014648;28;20387;-86
2022/01/12 04:30:47;;;;;;;2.45;2.20;;;3.50;99.90;;;;;;5015107;28;20068;-86
2022/01/12 04:33:13;;;;;;;5.40;4.85;;;3.50;99.90;;;;;;5014914;28;20033;-86
2022/01/12 04:35:48;;;;;;;3.65;1.08;;;3.50;99.90;;;;;;5014969;28;20546;-85
2022/01/12 04:38:14;;;;;;;2.97;1.65;;;3.60;99.90;;;;;;5014431;28;20095;-86
2022/01/12 04:40:40;;;;;;;3.05;2.08;;;3.50;99.90;;;;;;5031304;28;20120;-86
2022/01/12 04:43:08;;;;;;;0.80;0.80;;;3.50;99.90;;;;;;5014937;28;20576;-86
2022/01/12 04:48:32;;;;;;;0.63;0.63;;;3.60;99.90;;;;;;5031007;28;20049;-85
2022/01/12 04:50:47;;;;;;;2.13;1.75;;;3.60;99.90;;;;;;5030270;28;20491;-86
2022/01/12 04:53:14;;;;;;;1.60;1.30;;;3.60;99.90;;;;;;5031463;28;20716;-86
2022/01/12 04:55:40;;;;;;;11.15;4.95;;;3.60;99.90;;;;;;5014785;28;20038;-86
2022/01/12 04:58:06;;;;;;;2.28;1.75;;;3.60;99.90;;;;;;5030723;28;20034;-86
2022/01/12 05:00:32;;;;;;;0.88;0.88;;;3.60;99.90;;;;;;5014728;28;20116;-86
2022/01/12 05:13:55;;;;;;;0.68;0.68;;;3.60;99.90;;;;;;5033965;28;20057;-86
2022/01/12 05:16:21;;;;;;;0.90;0.88;;;3.50;99.90;;;;;;5016945;28;20087;-86
2022/01/12 05:18:48;;;;;;;0.63;0.57;;;3.50;99.90;;;;;;5033798;28;20038;-85
2022/01/12 05:21:16;;;;;;;3.55;3.22;;;3.50;99.90;;;;;;5034072;28;20029;-86
2022/01/12 05:23:42;;;;;;;1.38;1.27;;;3.40;99.90;;;;;;5033762;28;20422;-85
2022/01/12 05:26:08;;;;;;;3.53;1.38;;;3.40;99.90;;;;;;5017092;28;20042;-86
2022/01/12 05:28:38;;;;;;;1.15;0.70;;;3.40;99.90;;;;;;5017717;28;20405;-86
2022/01/12 05:31:04;;;;;;;1.13;0.63;;;3.40;99.90;;;;;;5017314;28;20037;-86
2022/01/12 05:33:29;;;;;;;0.73;0.70;;;3.90;99.90;;;;;;5017381;28;20051;-86
2022/01/12 05:35:56;;;;;;;4.80;2.63;;;3.40;99.90;;;;;;5017250;28;20038;-86
2022/01/12 05:38:23;;;;;;;1.20;0.93;;;3.50;99.90;;;;;;5016483;28;20084;-86
2022/01/12 05:40:53;;;;;;;1.52;1.42;;;3.40;99.90;;;;;;5017024;28;20410;-86
2022/01/12 05:43:28;;;;;;;0.77;0.77;;;3.40;99.90;;;;;;5017238;28;20037;-85
2022/01/12 05:45:55;;;;;;;1.02;0.98;;;3.40;99.90;;;;;;5016760;28;20045;-86
2022/01/12 05:50:49;;;;;;;0.50;0.50;;;3.30;99.90;;;;;;5050258;28;20042;-86
2022/01/12 05:53:16;;;;;;;3.50;1.85;;;3.20;99.90;;;;;;5016870;28;20092;-86
2022/01/12 05:55:43;;;;;;;1.17;1.08;;;3.10;99.90;;;;;;5033319;28;20071;-86
2022/01/12 05:58:08;;;;;;;0.38;0.38;;;3.80;99.90;;;;;;5032774;28;20084;-86
2022/01/12 06:00:34;;;;;;;0.88;0.85;;;3.00;99.90;;;;;;5033256;28;20033;-86
2022/01/12 06:02:59;;;;;;;1.77;1.30;;;3.00;99.90;;;;;;5033039;28;20033;-86
2022/01/12 06:05:27;;;;;;;1.00;0.95;;;2.90;99.90;;;;;;5016580;28;20040;-86
2022/01/12 06:07:54;;;;;;;0.80;0.80;;;2.90;99.90;;;;;;5016287;28;20407;-86
2022/01/12 06:10:23;;;;;;;0.82;0.80;;;3.00;99.90;;;;;;5033059;28;20044;-86
2022/01/12 06:12:52;;;;;;;0.30;0.30;;;3.10;99.90;;;;;;5016629;28;20040;-86
2022/01/12 06:15:18;;;;;;;0.40;0.40;;;3.10;99.90;;;;;;5016464;28;20037;-86
2022/01/12 06:17:44;;;;;;;1.90;1.10;;;3.20;99.90;;;;;;5015390;28;20034;-86
2022/01/12 06:20:10;;;;;;;0.80;0.68;;;3.10;99.90;;;;;;5016290;28;20029;-86
2022/01/12 06:22:36;;;;;;;2.60;2.08;;;3.20;99.90;;;;;;5015915;28;20037;-86
2022/01/12 06:25:06;;;;;;;0.98;0.88;;;3.20;99.90;;;;;;5015881;28;20122;-87
2022/01/12 06:27:33;;;;;;;0.45;0.45;;;3.20;99.90;;;;;;5007219;28;20407;-85
2022/01/12 06:30:14;;;;;;;0.40;0.40;;;3.20;99.90;;;;;;5015871;28;20049;-86
2022/01/12 06:32:40;;;;;;;0.45;0.45;;;3.20;99.90;;;;;;5015703;28;20044;-87
2022/01/12 06:35:06;;;;;;;0.32;0.32;;;3.10;99.90;;;;;;5016000;28;20042;-86
2022/01/12 06:37:31;;;;;;;0.40;0.40;;;3.00;99.90;;;;;;5031664;28;20051;-86
2022/01/12 06:39:57;;;;;;;0.30;0.30;;;3.00;99.90;;;;;;5015639;28;20486;-85
2022/01/12 06:42:24;;;;;;;0.68;0.68;;;2.90;99.90;;;;;;5015493;28;20037;-86
2022/01/12 06:44:50;;;;;;;0.55;0.55;;;2.90;99.90;;;;;;5015473;28;20526;-86
2022/01/12 06:47:18;;;;;;;0.40;0.40;;;2.90;99.90;;;;;;5014989;28;20041;-86
2022/01/12 06:49:44;;;;;;;1.10;1.00;;;2.90;99.90;;;;;;5031995;28;20045;-86
2022/01/12 06:52:09;;;;;;;1.25;1.15;;;2.80;99.90;;;;;;5031823;28;20041;-86
2022/01/12 06:54:35;;;;;;;0.60;0.60;;;2.80;99.90;;;;;;5015363;28;20083;-85
2022/01/12 06:57:00;;;;;;;0.40;0.40;;;2.80;99.90;;;;;;5014930;28;20110;-86
2022/01/12 06:59:26;;;;;;;0.40;0.40;;;2.70;99.90;;;;;;5015608;28;20041;-86
2022/01/12 07:01:51;;;;;;;0.40;0.40;;;2.60;99.90;;;;;;5029537;28;20383;-86
2022/01/12 07:04:20;;;;;;;0.65;0.65;;;2.60;99.90;;;;;;5027611;28;20064;-87
2022/01/12 07:06:45;;;;;;;0.63;0.63;;;2.50;99.90;;;;;;5029791;28;20037;-86
2022/01/12 07:09:11;;;;;;;0.80;0.80;;;2.50;99.90;;;;;;5032133;28;20048;-86
2022/01/12 07:11:37;;;;;;;0.95;0.85;;;2.40;99.90;;;;;;5031815;28;20068;-86
2022/01/12 07:14:02;;;;;;;0.80;0.80;;;2.30;99.90;;;;;;5032041;28;20045;-84
2022/01/12 07:16:28;;;;;;;1.05;0.95;;;2.30;99.90;;;;;;5031259;28;20048;-84
2022/01/12 07:18:58;;;;;;;0.40;0.40;;;2.20;99.90;;;;;;5048586;28;20044;-84
2022/01/12 07:21:24;;;;;;;0.40;0.40;;;2.20;99.90;;;;;;5032022;28;20038;-85
2022/01/12 07:23:54;;;;;;;0.50;0.50;;;2.20;99.90;;;;;;5015478;28;20044;-85
2022/01/12 07:26:21;;;;;;;0.60;0.60;;;1.80;99.90;;;;;;5014516;28;20041;-84
2022/01/12 07:28:47;;;;;;;0.30;0.30;;;1.90;99.90;;;;;;5031871;28;20490;-86
2022/01/12 07:31:12;;;;;;;0.75;0.75;;;1.80;99.90;;;;;;5031707;28;20163;-87
2022/01/12 07:33:38;;;;;;;1.33;0.82;;;1.70;99.90;;;;;;5047647;28;20442;-87
2022/01/12 07:36:04;;;;;;;0.30;0.30;;;1.70;99.90;;;;;;5031175;28;20048;-86
2022/01/12 07:38:29;;;;;;;0.73;0.65;;;1.70;99.90;;;;;;5014971;28;20507;-86
2022/01/12 07:40:55;;;;;;;1.67;0.93;;;1.70;99.90;;;;;;5014972;28;20086;-87
2022/01/12 07:43:20;;;;;;;0.52;0.52;;;1.80;99.90;;;;;;5014839;28;20124;-86
2022/01/12 07:45:47;;;;;;;0.80;0.80;;;1.80;99.90;;;;;;5014941;28;20045;-85
2022/01/12 07:48:13;;;;;;;0.57;0.57;;;1.90;99.90;;;;;;5014742;28;20482;-85
2022/01/12 07:50:39;;;;;;;0.50;0.50;;;1.90;99.90;;;;;;5014887;28;20077;-86
2022/01/12 07:53:05;;;;;;;0.35;0.35;;;1.80;99.90;;;;;;5014879;28;20059;-85
2022/01/12 07:55:31;;;;;;;2.17;1.98;;;1.80;99.90;;;;;;5031128;28;20491;-86
2022/01/12 07:57:56;;;;;;;0.70;0.70;;;2.00;99.90;;;;;;5014492;28;20453;-86
2022/01/12 08:00:22;;;;;;;1.88;1.42;;;2.10;99.90;;;;;;5014594;28;20069;-85
2022/01/12 08:02:50;;;;;;;0.40;0.40;;;2.30;99.90;;;;;;5031078;28;20679;-85
2022/01/12 08:05:16;;;;;;;0.93;0.73;;;2.40;99.90;;;;;;5014529;28;20045;-84
2022/01/12 08:07:41;;;;;;;2.30;1.35;;;2.50;99.90;;;;;;5030755;28;20124;-84
2022/01/12 08:10:09;;;;;;;2.05;1.25;;;2.50;99.90;;;;;;5014350;28;20129;-82
2022/01/12 08:12:35;;;;;;;1.67;1.40;;;2.60;99.90;;;;;;5030906;28;20056;-85
2022/01/12 08:15:03;;;;;;;2.90;0.95;;;2.70;99.90;;;;;;5014715;28;20091;-85
2022/01/12 08:17:32;;;;;;;1.42;1.33;;;2.80;99.90;;;;;;5014312;28;20037;-85
2022/01/12 08:19:58;;;;;;;3.25;1.80;;;2.90;99.90;;;;;;5014315;28;20037;-85
2022/01/12 08:22:24;;;;;;;3.40;1.90;;;2.90;99.90;;;;;;5014610;28;20502;-85
2022/01/12 08:24:49;;;;;;;5.28;3.13;;;2.90;99.90;;;;;;5014609;28;20068;-85
2022/01/12 08:27:15;;;;;;;1.30;0.88;;;3.00;99.90;;;;;;5046658;28;20033;-86
2022/01/12 08:29:40;;;;;;;14.27;4.57;;;3.00;99.90;;;;;;5030816;28;20037;-83
2022/01/12 08:32:06;;;;;;;1.70;1.58;;;3.10;99.90;;;;;;5047375;28;20041;-85
2022/01/12 08:34:32;;;;;;;9.52;3.72;;;3.10;99.90;;;;;;5030739;28;20110;-85
2022/01/12 08:36:57;;;;;;;3.63;1.70;;;3.10;99.90;;;;;;5013970;28;20053;-86
2022/01/12 08:39:23;;;;;;;3.45;1.70;;;3.10;99.90;;;;;;5014241;28;20045;-85
2022/01/12 08:41:49;;;;;;;1.10;1.00;;;3.10;99.90;;;;;;5014643;28;20036;-85
2022/01/12 08:44:15;;;;;;;1.20;1.10;;;3.10;99.90;;;;;;5014400;28;20080;-85
2022/01/12 08:46:42;;;;;;;1.33;0.82;;;3.20;99.90;;;;;;5016412;28;20045;-85
2022/01/12 08:49:08;;;;;;;0.63;0.63;;;3.20;99.90;;;;;;5034136;28;20042;-85
2022/01/12 08:51:37;;;;;;;1.70;1.40;;;3.20;99.90;;;;;;5033965;28;20406;-85
2022/01/12 08:54:03;;;;;;;0.60;0.60;;;3.20;99.90;;;;;;5034102;28;20069;-85
2022/01/12 08:56:29;;;;;;;0.50;0.50;;;3.20;99.90;;;;;;5033777;28;20112;-84
2022/01/12 08:58:54;;;;;;;4.63;1.35;;;3.30;99.90;;;;;;5017216;28;20449;-86
2022/01/12 09:01:20;;;;;;;15.98;3.60;;;3.30;99.90;;;;;;5034165;28;20044;-86
2022/01/12 09:03:47;;;;;;;1.20;0.90;;;3.30;99.90;;;;;;5017673;28;20152;-85
2022/01/12 09:06:13;;;;;;;0.80;0.80;;;3.30;99.90;;;;;;5016772;28;20419;-86
2022/01/12 09:08:40;;;;;;;1.77;0.88;;;3.40;99.90;;;;;;5017589;28;20041;-85
2022/01/12 09:11:07;;;;;;;2.90;1.33;;;3.30;99.90;;;;;;5017065;28;20048;-85
2022/01/12 09:13:32;;;;;;;0.75;0.75;;;3.40;99.90;;;;;;5017168;28;20541;-86
2022/01/12 09:16:00;;;;;;;0.63;0.63;;;3.40;99.90;;;;;;5033606;28;20045;-85
2022/01/12 09:18:26;;;;;;;7.72;3.10;;;3.50;99.90;;;;;;5049754;28;20052;-86
2022/01/12 09:20:53;;;;;;;1.40;0.95;;;3.50;99.90;;;;;;5033577;28;20037;-86
2022/01/12 09:23:19;;;;;;;6.72;1.75;;;3.50;99.90;;;;;;5033589;28;20040;-86
2022/01/12 09:25:45;;;;;;;0.50;0.50;;;3.60;99.90;;;;;;5033411;28;20048;-84
2022/01/12 09:28:10;;;;;;;0.50;0.50;;;3.60;99.90;;;;;;5049345;28;20049;-87
2022/01/12 09:30:37;;;;;;;9.52;3.17;;;3.60;99.90;;;;;;5050268;28;20049;-85
2022/01/12 09:33:02;;;;;;;2.15;1.75;;;3.70;99.90;;;;;;5033384;28;20037;-85
2022/01/12 09:35:29;;;;;;;2.03;1.75;;;3.70;99.90;;;;;;5049913;28;20048;-85
2022/01/12 09:37:55;;;;;;;4.57;2.63;;;3.70;99.90;;;;;;5016029;28;20561;-86
2022/01/12 09:40:21;;;;;;;2.50;2.00;;;3.80;99.90;;;;;;5016508;28;20041;-87
2022/01/12 09:42:48;;;;;;;0.40;0.40;;;3.80;99.90;;;;;;5016593;28;20037;-85
2022/01/12 09:45:17;;;;;;;0.68;0.68;;;3.90;99.90;;;;;;5016387;28;20079;-85
2022/01/12 09:47:44;;;;;;;2.15;1.80;;;3.90;99.90;;;;;;5016151;28;20079;-85
2022/01/12 09:50:11;;;;;;;1.25;1.15;;;3.90;99.90;;;;;;5016146;28;20128;-86
2022/01/12 09:52:37;;;;;;;1.33;1.23;;;4.00;99.90;;;;;;5016946;28;20037;-85
2022/01/12 09:55:04;;;;;;;0.47;0.47;;;4.00;99.90;;;;;;5033341;28;20048;-85
2022/01/12 09:57:29;;;;;;;5.18;1.48;;;4.00;99.90;;;;;;5032224;28;20053;-85
2022/01/12 09:59:55;;;;;;;1.10;1.00;;;4.00;99.90;;;;;;5032973;28;20037;-85
2022/01/12 10:02:21;;;;;;;0.98;0.82;;;4.10;99.90;;;;;;5033420;28;20041;-85
2022/01/12 10:04:47;;;;;;;0.60;0.52;;;4.10;99.90;;;;;;5033229;28;20041;-84
2022/01/12 10:07:14;;;;;;;0.60;0.60;;;4.10;99.90;;;;;;5032715;28;20502;-85
2022/01/12 10:09:44;;;;;;;6.32;1.77;;;4.10;99.90;;;;;;5033231;28;20167;-84
2022/01/12 10:12:21;;;;;;;7.15;3.03;;;4.10;99.90;;;;;;5028538;28;20052;-85
2022/01/12 10:14:49;;;;;;;6.30;4.20;;;4.10;99.90;;;;;;5033090;28;20041;-85
2022/01/12 10:17:16;;;;;;;5.05;2.83;;;4.10;99.90;;;;;;5030884;28;20047;-86
2022/01/12 10:19:42;;;;;;;1.20;0.98;;;4.10;99.90;;;;;;5011962;28;20486;-85
2022/01/12 10:22:11;;;;;;;0.80;0.77;;;4.20;99.90;;;;;;5015936;28;20113;-85
2022/01/12 10:24:39;;;;;;;1.85;1.50;;;4.10;99.90;;;;;;5016607;28;20033;-85
2022/01/12 10:27:17;;;;;;;1.38;1.27;;;4.10;99.90;;;;;;5013908;28;20568;-85
2022/01/12 10:29:44;;;;;;;2.70;1.65;;;4.10;99.90;;;;;;5016225;28;20041;-85
2022/01/12 10:32:10;;;;;;;6.20;1.00;;;4.20;99.90;;;;;;5015250;28;20037;-85
2022/01/12 10:34:44;;;;;;;5.80;4.25;;;4.20;99.90;;;;;;5014391;28;20034;-85
2022/01/12 10:37:18;;;;;;;7.00;2.93;;;4.20;99.90;;;;;;5021359;28;20048;-84
2022/01/12 10:39:48;;;;;;;0.65;0.65;;;4.20;99.90;;;;;;5032463;28;20458;-85
2022/01/12 10:42:17;;;;;;;3.25;1.67;;;4.30;99.90;;;;;;5049144;28;20037;-86
2022/01/12 10:44:46;;;;;;;8.52;1.75;;;4.40;99.90;;;;;;5032500;28;20120;-85
2022/01/12 10:47:14;;;;;;;3.38;1.95;;;4.40;99.90;;;;;;5031716;28;20120;-86
2022/01/12 10:50:00;;;;;;;0.63;0.63;;;4.40;99.90;;;;;;5032348;28;20049;-85
2022/01/12 10:52:30;;;;;;;6.75;2.00;;;4.40;99.90;;;;;;5015885;28;20138;-86
2022/01/12 10:55:11;;;;;;;2.70;1.80;;;4.50;99.90;;;;;;5015833;28;20380;-86
2022/01/12 10:57:44;;;;;;;8.90;1.92;;;4.50;99.90;;;;;;5015208;28;20041;-85
2022/01/12 11:00:22;;;;;;;1.58;1.00;;;4.50;99.90;;;;;;5015295;28;20388;-85
2022/01/12 11:02:54;;;;;;;7.88;1.65;;;4.50;99.90;;;;;;5015820;28;20128;-86
2022/01/12 11:05:21;;;;;;;2.53;0.93;;;4.60;99.90;;;;;;5015592;28;20045;-85
2022/01/12 11:07:48;;;;;;;0.55;0.55;;;4.60;99.90;;;;;;5014530;28;20668;-85
2022/01/12 11:10:14;;;;;;;2.15;1.52;;;4.60;99.90;;;;;;5015138;28;20037;-85
2022/01/12 11:12:40;;;;;;;4.93;2.65;;;4.70;99.90;;;;;;5031709;28;20091;-86
2022/01/12 11:15:07;;;;;;;0.88;0.80;;;4.70;99.90;;;;;;5048387;28;20041;-86
2022/01/12 11:17:33;;;;;;;2.15;1.60;;;4.70;99.90;;;;;;5031351;28;20442;-85
2022/01/12 11:20:17;;;;;;;5.43;2.72;;;4.60;99.90;;;;;;5015438;28;20499;-85
2022/01/12 11:23:08;;;;;;;3.15;2.13;;;4.60;99.90;;;;;;5014713;28;20399;-85
2022/01/12 11:25:42;;;;;;;11.70;2.55;;;4.60;99.90;;;;;;5014683;28;20107;-86
2022/01/12 11:28:21;;;;;;;6.10;1.98;;;4.60;99.90;;;;;;5014709;28;20479;-86
2022/01/12 11:30:56;;;;;;;8.70;2.60;;;4.50;99.90;;;;;;5009135;28;20042;-85
2022/01/12 11:33:33;;;;;;;;;;;4.50;99.90;;;;;;5038980;28;20414;-86
2022/01/12 11:36:17;;;;;;;1.95;1.30;;;4.50;99.90;;;;;;5030978;28;19917;-87
2022/01/12 11:38:50;;;;;;;2.75;1.10;;;4.50;99.90;;;;;;5015155;28;20042;-86
2022/01/12 11:41:26;;;;;;;3.45;1.23;;;4.50;99.90;;;;;;5015310;28;20044;-85
2022/01/12 11:43:54;;;;;;;16.13;1.90;;;4.60;99.90;;;;;;5015066;28;20434;-86
2022/01/12 11:46:26;;;;;;;1.60;0.98;;;4.40;99.90;;;;;;5014565;28;20041;-86
2022/01/12 11:48:59;;;;;;;15.85;0.88;;;4.40;99.90;;;;;;5015124;28;20091;-86
2022/01/12 11:51:44;;;;;;;21.17;1.80;;;4.40;99.90;;;;;;5015086;28;20037;-86
2022/01/12 11:54:15;;;;;;;0.65;0.55;;;4.40;99.90;;;;;;5031298;28;20431;-85
2022/01/12 11:57:11;;;;;;;4.63;2.08;;;4.40;99.90;;;;;;5014403;28;20422;-86
2022/01/12 11:59:51;;;;;;;0.40;0.40;;;4.40;99.90;;;;;;5018666;28;20132;-86
2022/01/12 12:02:19;;;;;;;0.30;0.30;;;4.40;99.90;;;;;;5031161;28;20044;-86
2022/01/12 12:05:00;;;;;;;1.90;1.15;;;4.40;99.90;;;;;;5031239;28;20036;-86
2022/01/12 12:07:26;;;;;;;0.50;0.50;;;4.40;99.90;;;;;;5030677;28;20418;-84
2022/01/12 12:09:57;;;;;;;2.67;1.60;;;4.50;99.90;;;;;;5047659;28;20131;-86
2022/01/12 12:12:34;;;;;;;12.27;1.95;;;4.50;99.90;;;;;;5047469;28;20037;-86
2022/01/12 12:15:03;;;;;;;1.60;1.40;;;4.50;99.90;;;;;;5031236;28;20041;-86
2022/01/12 12:17:31;;;;;;;0.75;0.75;;;4.60;99.90;;;;;;5030662;28;20048;-86
2022/01/12 12:19:58;;;;;;;0.50;0.50;;;4.60;99.90;;;;;;5049187;28;20048;-86
2022/01/12 12:22:27;;;;;;;0.60;0.60;;;4.70;99.90;;;;;;5018690;28;20041;-86
2022/01/12 12:24:58;;;;;;;0.60;0.60;;;4.60;99.90;;;;;;5018687;28;20510;-86
2022/01/12 12:27:25;;;;;;;0.80;0.75;;;4.60;99.90;;;;;;5017898;28;20091;-86
2022/01/12 12:29:52;;;;;;;3.00;2.00;;;4.70;99.90;;;;;;5035041;28;20495;-86
2022/01/12 12:32:20;;;;;;;1.48;1.25;;;4.60;99.90;;;;;;5035095;28;20052;-84
2022/01/12 12:34:47;;;;;;;3.97;1.13;;;4.60;99.90;;;;;;5034867;28;20076;-86
2022/01/12 12:37:16;;;;;;;7.32;1.10;;;4.50;99.90;;;;;;5034309;28;20044;-86
2022/01/12 12:39:45;;;;;;;1.52;0.88;;;4.60;99.90;;;;;;5034793;28;20038;-86
2022/01/12 12:42:19;;;;;;;2.75;1.13;;;4.60;99.90;;;;;;5034790;28;20095;-86
2022/01/12 12:44:53;;;;;;;11.98;1.52;;;4.60;99.90;;;;;;5006613;28;20087;-86
2022/01/12 12:47:19;;;;;;;0.85;0.75;;;4.60;99.90;;;;;;5017770;28;20045;-86
2022/01/12 12:49:56;;;;;;;0.45;0.45;;;4.60;99.90;;;;;;5034625;28;20051;-86
2022/01/12 12:52:33;;;;;;;3.70;1.52;;;4.60;99.90;;;;;;5034572;28;20045;-86
2022/01/12 12:55:03;;;;;;;7.72;1.70;;;4.50;99.90;;;;;;5034292;28;20092;-87
2022/01/12 12:57:29;;;;;;;1.52;0.80;;;4.50;99.90;;;;;;5033912;28;20041;-86
2022/01/12 13:00:08;;;;;;;2.63;1.23;;;4.50;99.90;;;;;;5034317;28;20140;-86
2022/01/12 13:02:43;;;;;;;0.80;0.60;;;4.50;99.90;;;;;;5034525;28;20071;-86
2022/01/12 13:05:12;;;;;;;2.40;0.50;;;4.50;99.90;;;;;;5051238;28;20069;-86
2022/01/12 13:07:42;;;;;;;6.13;1.02;;;4.50;99.90;;;;;;5017263;28;20482;-88
2022/01/12 13:10:14;;;;;;;5.70;1.63;;;4.50;99.90;;;;;;5014294;28;20038;-85
2022/01/12 13:12:46;;;;;;;12.95;2.20;;;4.50;99.90;;;;;;4998157;28;20052;-86
2022/01/12 13:15:19;;;;;;;2.00;1.10;;;4.50;99.90;;;;;;4997952;28;20038;-86
2022/01/12 13:17:44;;;;;;;11.80;0.65;;;4.60;99.90;;;;;;4997604;28;20453;-86
2022/01/12 13:22:46;;;;;;;0.40;0.40;;;4.60;99.90;;;;;;5014196;28;20077;-86
2022/01/12 13:25:15;;;;;;;0.30;0.30;;;4.60;99.90;;;;;;4997749;28;20588;-86
2022/01/12 13:27:42;;;;;;;1.95;1.00;;;4.60;99.90;;;;;;5030337;28;20561;-86
2022/01/12 13:30:10;;;;;;;3.00;1.08;;;4.70;99.90;;;;;;5025547;28;20410;-86
2022/01/12 13:32:37;;;;;;;0.30;0.30;;;4.60;99.90;;;;;;5016692;28;20069;-86
2022/01/12 13:35:08;;;;;;;0.80;0.80;;;4.70;99.90;;;;;;5033673;28;20041;-86
2022/01/12 13:37:34;;;;;;;0.70;0.70;;;4.70;99.90;;;;;;5050059;28;20045;-86
2022/01/12 13:40:10;;;;;;;1.95;0.65;;;4.80;99.90;;;;;;5050087;28;20384;-86
2022/01/12 13:42:56;;;;;;;0.95;0.82;;;4.80;99.90;;;;;;5033499;28;20132;-87
2022/01/12 13:45:46;;;;;;;1.38;0.95;;;4.80;99.90;;;;;;5033548;28;20509;-86
2022/01/12 13:48:17;;;;;;;16.13;1.60;;;4.80;99.90;;;;;;5033416;28;20056;-86
2022/01/12 13:50:52;;;;;;;18.38;2.97;;;4.70;99.90;;;;;;5050146;28;20033;-86
2022/01/12 13:53:18;;;;;;;;;;;4.80;99.90;;;;;;5033671;28;20124;-86
2022/01/12 13:55:54;;;;;;;6.68;3.00;;;4.70;99.90;;;;;;5016902;28;20022;-86
2022/01/12 13:58:28;;;;;;;8.50;2.67;;;4.70;99.90;;;;;;5032712;28;20049;-86
2022/01/12 14:01:07;;;;;;;3.45;1.52;;;4.70;99.90;;;;;;5050009;28;20046;-86
2022/01/12 14:03:53;;;;;;;1.25;1.00;;;4.70;99.90;;;;;;5033316;28;20175;-86
2022/01/12 14:06:24;;;;;;;1.02;0.82;;;4.80;99.90;;;;;;5033161;28;20875;-86
2022/01/12 14:08:54;;;;;;;0.30;0.30;;;4.80;99.90;;;;;;5033458;28;20045;-86
2022/01/12 14:11:22;;;;;;;3.15;1.75;;;4.80;99.90;;;;;;5049746;28;20049;-86
2022/01/12 14:13:47;;;;;;;5.68;1.35;;;4.80;99.90;;;;;;5032918;28;20048;-87
2022/01/12 14:16:14;;;;;;;0.32;0.32;;;4.70;99.90;;;;;;5032609;28;20517;-87
2022/01/12 14:18:41;;;;;;;0.40;0.40;;;4.70;99.90;;;;;;5032801;28;20069;-87
2022/01/12 14:21:14;;;;;;;2.80;1.15;;;4.70;99.90;;;;;;5032803;28;20038;-87
2022/01/12 14:23:40;;;;;;;1.48;0.90;;;4.70;99.90;;;;;;5033200;28;20045;-87
2022/01/12 14:26:06;;;;;;;2.65;2.05;;;4.70;99.90;;;;;;5032258;28;20036;-87
2022/01/12 14:28:32;;;;;;;5.10;1.55;;;4.80;99.90;;;;;;5032634;28;20072;-87
2022/01/12 14:30:58;;;;;;;1.25;0.90;;;4.90;99.90;;;;;;5032632;28;20042;-87